Portada
METAR-TAF:

METAR-TAF

Aeroports :

Macas, Equador

latitud: 02-17-57-S, longitud: 078-07-15-W, altitud: 1052 m

Observació

L'informe es va fer fa 9 hores i 42 minuts, a les 23:00 UTC
Vent 4 kt del Nord-Est
Temperatura 21°C
Humitat 88%
Pressió 1018 hPa
Visibilitat 10 km o més
Núvols disperses a una alçada de 2600 ft
Núvols disperses a una alçada de 10000 ft
xàfecs en les proximitats

METAR: SEMC 162300Z 05004KT 9999 VCSH SCT026 SCT100 21/19 Q1018 RMK A3008

Hora: 03:42 (08:42 UTC)


TAF: manca

Observacions i pronòstics meteorològics de més de 4000 aeroports (METAR i TAF).

Les estacions disponibles són els punts grocs i vermells al mapa.

Posi el ratolí al punt desitjat per veure el nom de l'estació.

Feu clic per veure les observacions i els pronòstics meteorològics.

Per canviar el mapa: feu clic els botons verds amb una creu de color negre per apropar; al botó verd amb un guió per allunyar la imatge; o en les fletxes verdes per a mapes adjacents.


METAR-TAF: